sensor_id;sensor_type;location;lat;lon;timestamp;P1;durP1;ratioP1;P2;durP2;ratioP2
8293;SDS011;4185;41.506;24.938;2023-02-15T00:02:00;23.30;;;13.93;;
8293;SDS011;4185;41.506;24.938;2023-02-15T00:04:27;20.67;;;12.10;;
8293;SDS011;4185;41.506;24.938;2023-02-15T00:07:10;23.67;;;12.97;;
8293;SDS011;4185;41.506;24.938;2023-02-15T00:09:37;25.23;;;14.47;;
8293;SDS011;4185;41.506;24.938;2023-02-15T00:12:05;27.00;;;13.23;;
8293;SDS011;4185;41.506;24.938;2023-02-15T00:14:32;22.40;;;13.23;;
8293;SDS011;4185;41.506;24.938;2023-02-15T00:16:59;25.07;;;12.13;;
8293;SDS011;4185;41.506;24.938;2023-02-15T00:19:26;20.43;;;13.53;;
8293;SDS011;4185;41.506;24.938;2023-02-15T00:21:52;19.27;;;11.70;;
8293;SDS011;4185;41.506;24.938;2023-02-15T00:24:19;20.73;;;11.40;;
8293;SDS011;4185;41.506;24.938;2023-02-15T00:26:46;20.93;;;12.07;;
8293;SDS011;4185;41.506;24.938;2023-02-15T00:29:15;20.80;;;12.93;;
8293;SDS011;4185;41.506;24.938;2023-02-15T00:31:43;18.47;;;9.97;;
8293;SDS011;4185;41.506;24.938;2023-02-15T00:34:11;23.73;;;14.30;;
8293;SDS011;4185;41.506;24.938;2023-02-15T00:36:40;20.57;;;12.27;;
8293;SDS011;4185;41.506;24.938;2023-02-15T00:39:07;21.90;;;12.50;;
8293;SDS011;4185;41.506;24.938;2023-02-15T00:41:34;18.10;;;10.27;;
8293;SDS011;4185;41.506;24.938;2023-02-15T00:44:01;15.47;;;8.80;;
8293;SDS011;4185;41.506;24.938;2023-02-15T00:46:30;15.53;;;8.33;;
8293;SDS011;4185;41.506;24.938;2023-02-15T00:48:58;16.10;;;8.37;;
8293;SDS011;4185;41.506;24.938;2023-02-15T00:51:25;14.77;;;8.57;;
8293;SDS011;4185;41.506;24.938;2023-02-15T00:53:52;12.83;;;8.47;;
8293;SDS011;4185;41.506;24.938;2023-02-15T00:56:19;13.10;;;8.30;;
8293;SDS011;4185;41.506;24.938;2023-02-15T00:58:46;14.03;;;7.93;;
8293;SDS011;4185;41.506;24.938;2023-02-15T01:01:13;15.70;;;10.27;;
8293;SDS011;4185;41.506;24.938;2023-02-15T01:03:43;17.73;;;11.37;;
8293;SDS011;4185;41.506;24.938;2023-02-15T01:06:11;17.33;;;10.17;;
8293;SDS011;4185;41.506;24.938;2023-02-15T01:08:39;24.40;;;12.37;;
8293;SDS011;4185;41.506;24.938;2023-02-15T01:11:06;18.33;;;11.43;;
8293;SDS011;4185;41.506;24.938;2023-02-15T01:13:35;17.80;;;9.67;;
8293;SDS011;4185;41.506;24.938;2023-02-15T01:16:02;18.90;;;9.83;;
8293;SDS011;4185;41.506;24.938;2023-02-15T01:18:29;16.13;;;10.70;;
8293;SDS011;4185;41.506;24.938;2023-02-15T01:20:58;16.70;;;10.10;;
8293;SDS011;4185;41.506;24.938;2023-02-15T01:23:24;17.17;;;11.93;;
8293;SDS011;4185;41.506;24.938;2023-02-15T01:25:51;18.37;;;11.13;;
8293;SDS011;4185;41.506;24.938;2023-02-15T01:28:18;13.87;;;10.23;;
8293;SDS011;4185;41.506;24.938;2023-02-15T01:30:45;16.40;;;8.30;;
8293;SDS011;4185;41.506;24.938;2023-02-15T01:33:12;15.67;;;7.97;;
8293;SDS011;4185;41.506;24.938;2023-02-15T01:35:42;12.80;;;7.77;;
8293;SDS011;4185;41.506;24.938;2023-02-15T01:38:13;14.20;;;9.23;;
8293;SDS011;4185;41.506;24.938;2023-02-15T01:40:40;11.70;;;7.87;;
8293;SDS011;4185;41.506;24.938;2023-02-15T01:43:09;17.57;;;10.27;;
8293;SDS011;4185;41.506;24.938;2023-02-15T01:45:37;16.33;;;9.93;;
8293;SDS011;4185;41.506;24.938;2023-02-15T01:48:05;19.00;;;10.03;;
8293;SDS011;4185;41.506;24.938;2023-02-15T01:50:47;17.37;;;10.17;;
8293;SDS011;4185;41.506;24.938;2023-02-15T01:53:19;15.57;;;8.73;;
8293;SDS011;4185;41.506;24.938;2023-02-15T01:55:52;14.60;;;9.80;;
8293;SDS011;4185;41.506;24.938;2023-02-15T01:58:22;12.73;;;8.50;;
8293;SDS011;4185;41.506;24.938;2023-02-15T02:00:50;20.93;;;9.93;;
8293;SDS011;4185;41.506;24.938;2023-02-15T02:03:17;14.67;;;9.97;;
8293;SDS011;4185;41.506;24.938;2023-02-15T02:05:50;20.43;;;9.87;;
8293;SDS011;4185;41.506;24.938;2023-02-15T02:08:17;18.97;;;10.67;;
8293;SDS011;4185;41.506;24.938;2023-02-15T02:10:45;13.10;;;10.50;;
8293;SDS011;4185;41.506;24.938;2023-02-15T02:13:12;18.30;;;10.93;;
8293;SDS011;4185;41.506;24.938;2023-02-15T02:15:40;13.67;;;9.60;;
8293;SDS011;4185;41.506;24.938;2023-02-15T02:18:18;15.97;;;10.07;;
8293;SDS011;4185;41.506;24.938;2023-02-15T02:27:25;9.10;;;6.93;;
8293;SDS011;4185;41.506;24.938;2023-02-15T02:33:12;10.33;;;7.20;;
8293;SDS011;4185;41.506;24.938;2023-02-15T02:35:57;13.37;;;8.03;;
8293;SDS011;4185;41.506;24.938;2023-02-15T02:38:33;12.83;;;7.63;;
8293;SDS011;4185;41.506;24.938;2023-02-15T02:41:12;8.77;;;7.33;;
8293;SDS011;4185;41.506;24.938;2023-02-15T02:43:47;12.83;;;7.97;;
8293;SDS011;4185;41.506;24.938;2023-02-15T02:46:18;12.90;;;9.17;;
8293;SDS011;4185;41.506;24.938;2023-02-15T02:48:49;15.13;;;8.93;;
8293;SDS011;4185;41.506;24.938;2023-02-15T02:51:17;15.63;;;8.60;;
8293;SDS011;4185;41.506;24.938;2023-02-15T02:53:47;17.07;;;8.60;;
8293;SDS011;4185;41.506;24.938;2023-02-15T02:56:18;9.80;;;7.40;;
8293;SDS011;4185;41.506;24.938;2023-02-15T02:58:51;13.97;;;9.47;;
8293;SDS011;4185;41.506;24.938;2023-02-15T03:01:27;23.17;;;11.53;;
8293;SDS011;4185;41.506;24.938;2023-02-15T03:04:01;15.60;;;9.13;;
8293;SDS011;4185;41.506;24.938;2023-02-15T03:06:33;11.47;;;8.17;;
8293;SDS011;4185;41.506;24.938;2023-02-15T03:09:07;14.10;;;8.07;;
8293;SDS011;4185;41.506;24.938;2023-02-15T03:11:39;17.70;;;8.47;;
8293;SDS011;4185;41.506;24.938;2023-02-15T03:14:08;14.33;;;8.97;;
8293;SDS011;4185;41.506;24.938;2023-02-15T03:16:36;14.00;;;8.20;;
8293;SDS011;4185;41.506;24.938;2023-02-15T03:19:07;14.43;;;8.57;;
8293;SDS011;4185;41.506;24.938;2023-02-15T03:21:43;14.47;;;8.67;;
8293;SDS011;4185;41.506;24.938;2023-02-15T03:24:23;11.87;;;8.30;;
8293;SDS011;4185;41.506;24.938;2023-02-15T03:26:52;10.53;;;7.40;;
8293;SDS011;4185;41.506;24.938;2023-02-15T03:29:21;14.77;;;8.57;;
8293;SDS011;4185;41.506;24.938;2023-02-15T03:31:53;13.07;;;8.13;;
8293;SDS011;4185;41.506;24.938;2023-02-15T03:34:26;23.47;;;14.87;;
8293;SDS011;4185;41.506;24.938;2023-02-15T03:36:55;24.73;;;14.47;;
8293;SDS011;4185;41.506;24.938;2023-02-15T03:39:28;10.57;;;7.63;;
8293;SDS011;4185;41.506;24.938;2023-02-15T03:42:01;15.50;;;8.20;;
8293;SDS011;4185;41.506;24.938;2023-02-15T03:44:36;16.03;;;7.97;;
8293;SDS011;4185;41.506;24.938;2023-02-15T03:47:13;13.77;;;8.60;;
8293;SDS011;4185;41.506;24.938;2023-02-15T03:49:45;9.73;;;7.17;;
8293;SDS011;4185;41.506;24.938;2023-02-15T03:52:17;14.63;;;9.33;;
8293;SDS011;4185;41.506;24.938;2023-02-15T03:54:45;13.23;;;8.90;;
8293;SDS011;4185;41.506;24.938;2023-02-15T03:57:17;12.77;;;8.27;;
8293;SDS011;4185;41.506;24.938;2023-02-15T04:00:04;17.60;;;9.67;;
8293;SDS011;4185;41.506;24.938;2023-02-15T04:05:45;13.53;;;8.67;;
8293;SDS011;4185;41.506;24.938;2023-02-15T04:08:12;16.20;;;9.07;;
8293;SDS011;4185;41.506;24.938;2023-02-15T04:10:39;13.87;;;8.43;;
8293;SDS011;4185;41.506;24.938;2023-02-15T04:13:21;9.13;;;6.50;;
8293;SDS011;4185;41.506;24.938;2023-02-15T04:15:49;10.77;;;7.77;;
8293;SDS011;4185;41.506;24.938;2023-02-15T04:18:31;11.87;;;7.97;;
8293;SDS011;4185;41.506;24.938;2023-02-15T04:21:17;14.47;;;7.17;;
8293;SDS011;4185;41.506;24.938;2023-02-15T04:24:02;16.30;;;9.23;;
8293;SDS011;4185;41.506;24.938;2023-02-15T04:26:47;18.70;;;9.03;;
8293;SDS011;4185;41.506;24.938;2023-02-15T04:29:14;16.43;;;9.17;;
8293;SDS011;4185;41.506;24.938;2023-02-15T04:31:41;17.53;;;9.47;;
8293;SDS011;4185;41.506;24.938;2023-02-15T04:34:09;26.53;;;11.33;;
8293;SDS011;4185;41.506;24.938;2023-02-15T04:36:37;35.97;;;16.37;;
8293;SDS011;4185;41.506;24.938;2023-02-15T04:39:04;24.87;;;12.20;;
8293;SDS011;4185;41.506;24.938;2023-02-15T04:41:31;48.50;;;21.07;;
8293;SDS011;4185;41.506;24.938;2023-02-15T04:43:58;24.80;;;14.47;;
8293;SDS011;4185;41.506;24.938;2023-02-15T04:46:26;21.40;;;12.23;;
8293;SDS011;4185;41.506;24.938;2023-02-15T04:48:53;22.70;;;12.40;;
8293;SDS011;4185;41.506;24.938;2023-02-15T04:51:20;27.70;;;14.77;;
8293;SDS011;4185;41.506;24.938;2023-02-15T04:53:49;27.33;;;12.10;;
8293;SDS011;4185;41.506;24.938;2023-02-15T04:56:17;52.07;;;25.87;;
8293;SDS011;4185;41.506;24.938;2023-02-15T04:58:44;35.03;;;18.30;;
8293;SDS011;4185;41.506;24.938;2023-02-15T05:01:11;25.03;;;13.07;;
8293;SDS011;4185;41.506;24.938;2023-02-15T05:03:38;22.67;;;14.20;;
8293;SDS011;4185;41.506;24.938;2023-02-15T05:06:05;24.90;;;14.47;;
8293;SDS011;4185;41.506;24.938;2023-02-15T05:08:32;24.67;;;15.50;;
8293;SDS011;4185;41.506;24.938;2023-02-15T05:11:00;35.53;;;20.40;;
8293;SDS011;4185;41.506;24.938;2023-02-15T05:13:27;31.60;;;15.50;;
8293;SDS011;4185;41.506;24.938;2023-02-15T05:15:53;23.37;;;13.10;;
8293;SDS011;4185;41.506;24.938;2023-02-15T05:18:20;21.80;;;13.77;;
8293;SDS011;4185;41.506;24.938;2023-02-15T05:20:48;19.73;;;10.50;;
8293;SDS011;4185;41.506;24.938;2023-02-15T05:23:15;19.97;;;12.97;;
8293;SDS011;4185;41.506;24.938;2023-02-15T05:25:45;33.63;;;16.87;;
8293;SDS011;4185;41.506;24.938;2023-02-15T05:28:32;21.70;;;13.43;;
8293;SDS011;4185;41.506;24.938;2023-02-15T05:31:00;29.93;;;16.40;;
8293;SDS011;4185;41.506;24.938;2023-02-15T05:33:30;28.63;;;14.27;;
8293;SDS011;4185;41.506;24.938;2023-02-15T05:35:57;22.77;;;14.00;;
8293;SDS011;4185;41.506;24.938;2023-02-15T05:38:23;34.83;;;17.30;;
8293;SDS011;4185;41.506;24.938;2023-02-15T05:40:50;33.07;;;16.23;;
8293;SDS011;4185;41.506;24.938;2023-02-15T05:43:17;27.07;;;16.93;;
8293;SDS011;4185;41.506;24.938;2023-02-15T05:45:46;41.30;;;20.90;;
8293;SDS011;4185;41.506;24.938;2023-02-15T05:48:13;39.10;;;19.13;;
8293;SDS011;4185;41.506;24.938;2023-02-15T05:50:40;33.57;;;19.63;;
8293;SDS011;4185;41.506;24.938;2023-02-15T05:53:07;37.37;;;21.47;;
8293;SDS011;4185;41.506;24.938;2023-02-15T05:55:34;31.87;;;16.60;;
8293;SDS011;4185;41.506;24.938;2023-02-15T05:58:04;27.90;;;12.53;;
8293;SDS011;4185;41.506;24.938;2023-02-15T06:00:31;23.67;;;14.53;;
8293;SDS011;4185;41.506;24.938;2023-02-15T06:03:00;24.33;;;13.43;;
8293;SDS011;4185;41.506;24.938;2023-02-15T06:05:26;21.17;;;10.07;;
8293;SDS011;4185;41.506;24.938;2023-02-15T06:07:53;21.27;;;11.20;;
8293;SDS011;4185;41.506;24.938;2023-02-15T06:10:20;22.13;;;11.83;;
8293;SDS011;4185;41.506;24.938;2023-02-15T06:12:47;20.10;;;12.37;;
8293;SDS011;4185;41.506;24.938;2023-02-15T06:15:13;44.93;;;22.93;;
8293;SDS011;4185;41.506;24.938;2023-02-15T06:17:40;42.13;;;21.77;;
8293;SDS011;4185;41.506;24.938;2023-02-15T06:20:10;25.87;;;15.73;;
8293;SDS011;4185;41.506;24.938;2023-02-15T06:22:37;43.57;;;23.63;;
8293;SDS011;4185;41.506;24.938;2023-02-15T06:25:04;57.73;;;26.67;;
8293;SDS011;4185;41.506;24.938;2023-02-15T06:27:34;51.67;;;21.73;;
8293;SDS011;4185;41.506;24.938;2023-02-15T06:30:02;65.13;;;27.73;;
8293;SDS011;4185;41.506;24.938;2023-02-15T06:32:29;43.30;;;22.53;;
8293;SDS011;4185;41.506;24.938;2023-02-15T06:34:56;16.57;;;11.37;;
8293;SDS011;4185;41.506;24.938;2023-02-15T06:37:24;24.03;;;13.87;;
8293;SDS011;4185;41.506;24.938;2023-02-15T06:39:51;28.63;;;14.43;;
8293;SDS011;4185;41.506;24.938;2023-02-15T06:42:17;40.67;;;21.90;;
8293;SDS011;4185;41.506;24.938;2023-02-15T06:44:44;27.50;;;15.57;;
8293;SDS011;4185;41.506;24.938;2023-02-15T06:47:11;37.13;;;19.87;;
8293;SDS011;4185;41.506;24.938;2023-02-15T06:49:38;32.70;;;19.30;;
8293;SDS011;4185;41.506;24.938;2023-02-15T06:52:05;45.83;;;22.97;;
8293;SDS011;4185;41.506;24.938;2023-02-15T06:54:33;37.37;;;20.47;;
8293;SDS011;4185;41.506;24.938;2023-02-15T06:57:00;47.60;;;21.13;;
8293;SDS011;4185;41.506;24.938;2023-02-15T06:59:27;28.47;;;17.87;;
8293;SDS011;4185;41.506;24.938;2023-02-15T07:01:54;35.47;;;19.53;;
8293;SDS011;4185;41.506;24.938;2023-02-15T07:04:20;39.87;;;19.80;;
8293;SDS011;4185;41.506;24.938;2023-02-15T07:06:47;50.13;;;23.90;;
8293;SDS011;4185;41.506;24.938;2023-02-15T07:09:14;32.13;;;14.70;;
8293;SDS011;4185;41.506;24.938;2023-02-15T07:11:42;25.93;;;15.27;;
8293;SDS011;4185;41.506;24.938;2023-02-15T07:14:27;35.67;;;17.93;;
8293;SDS011;4185;41.506;24.938;2023-02-15T07:16:53;35.90;;;18.20;;
8293;SDS011;4185;41.506;24.938;2023-02-15T07:19:20;29.73;;;15.40;;
8293;SDS011;4185;41.506;24.938;2023-02-15T07:21:47;21.70;;;13.63;;
8293;SDS011;4185;41.506;24.938;2023-02-15T07:24:14;15.67;;;10.23;;
8293;SDS011;4185;41.506;24.938;2023-02-15T07:26:40;19.07;;;10.70;;
8293;SDS011;4185;41.506;24.938;2023-02-15T07:29:09;24.27;;;12.23;;
8293;SDS011;4185;41.506;24.938;2023-02-15T07:31:35;24.47;;;14.40;;
8293;SDS011;4185;41.506;24.938;2023-02-15T07:34:05;59.97;;;29.27;;
8293;SDS011;4185;41.506;24.938;2023-02-15T07:36:33;42.67;;;21.60;;
8293;SDS011;4185;41.506;24.938;2023-02-15T07:39:00;20.93;;;12.80;;
8293;SDS011;4185;41.506;24.938;2023-02-15T07:41:26;23.23;;;14.43;;
8293;SDS011;4185;41.506;24.938;2023-02-15T07:43:55;33.20;;;18.53;;
8293;SDS011;4185;41.506;24.938;2023-02-15T07:46:21;20.97;;;13.47;;
8293;SDS011;4185;41.506;24.938;2023-02-15T07:48:48;19.80;;;12.53;;
8293;SDS011;4185;41.506;24.938;2023-02-15T07:51:15;16.30;;;11.07;;
8293;SDS011;4185;41.506;24.938;2023-02-15T07:53:42;18.50;;;10.73;;
8293;SDS011;4185;41.506;24.938;2023-02-15T07:56:09;30.47;;;16.53;;
8293;SDS011;4185;41.506;24.938;2023-02-15T07:58:38;37.00;;;19.20;;
8293;SDS011;4185;41.506;24.938;2023-02-15T08:01:19;35.30;;;19.80;;
8293;SDS011;4185;41.506;24.938;2023-02-15T08:03:46;36.40;;;19.63;;
8293;SDS011;4185;41.506;24.938;2023-02-15T08:06:13;36.77;;;18.17;;
8293;SDS011;4185;41.506;24.938;2023-02-15T08:08:41;30.47;;;17.33;;
8293;SDS011;4185;41.506;24.938;2023-02-15T08:11:13;28.50;;;16.87;;
8293;SDS011;4185;41.506;24.938;2023-02-15T08:14:02;26.20;;;19.57;;
8293;SDS011;4185;41.506;24.938;2023-02-15T08:16:33;24.13;;;16.60;;
8293;SDS011;4185;41.506;24.938;2023-02-15T08:19:03;16.87;;;11.00;;
8293;SDS011;4185;41.506;24.938;2023-02-15T08:21:32;20.07;;;11.57;;
8293;SDS011;4185;41.506;24.938;2023-02-15T08:23:59;18.50;;;11.80;;
8293;SDS011;4185;41.506;24.938;2023-02-15T08:26:27;17.90;;;11.43;;
8293;SDS011;4185;41.506;24.938;2023-02-15T08:28:56;17.27;;;11.37;;
8293;SDS011;4185;41.506;24.938;2023-02-15T08:31:23;18.50;;;11.97;;
8293;SDS011;4185;41.506;24.938;2023-02-15T08:33:52;19.27;;;13.33;;
8293;SDS011;4185;41.506;24.938;2023-02-15T08:36:21;26.50;;;19.80;;
8293;SDS011;4185;41.506;24.938;2023-02-15T08:38:49;18.93;;;14.17;;
8293;SDS011;4185;41.506;24.938;2023-02-15T08:41:17;23.77;;;17.77;;
8293;SDS011;4185;41.506;24.938;2023-02-15T08:43:46;16.87;;;12.23;;
8293;SDS011;4185;41.506;24.938;2023-02-15T08:46:14;17.93;;;12.03;;
8293;SDS011;4185;41.506;24.938;2023-02-15T08:48:42;16.10;;;12.63;;
8293;SDS011;4185;41.506;24.938;2023-02-15T08:51:12;17.00;;;12.87;;
8293;SDS011;4185;41.506;24.938;2023-02-15T08:53:41;16.73;;;10.83;;
8293;SDS011;4185;41.506;24.938;2023-02-15T08:56:10;12.33;;;10.57;;
8293;SDS011;4185;41.506;24.938;2023-02-15T08:58:38;13.27;;;8.17;;
8293;SDS011;4185;41.506;24.938;2023-02-15T09:01:08;12.53;;;9.30;;
8293;SDS011;4185;41.506;24.938;2023-02-15T09:03:36;12.53;;;8.43;;
8293;SDS011;4185;41.506;24.938;2023-02-15T09:06:03;15.73;;;11.73;;
8293;SDS011;4185;41.506;24.938;2023-02-15T09:08:31;19.63;;;13.87;;
8293;SDS011;4185;41.506;24.938;2023-02-15T09:11:05;15.83;;;10.13;;
8293;SDS011;4185;41.506;24.938;2023-02-15T09:13:32;9.37;;;6.97;;
8293;SDS011;4185;41.506;24.938;2023-02-15T09:16:00;12.97;;;7.63;;
8293;SDS011;4185;41.506;24.938;2023-02-15T09:18:29;12.07;;;8.63;;
8293;SDS011;4185;41.506;24.938;2023-02-15T09:20:57;10.47;;;7.80;;
8293;SDS011;4185;41.506;24.938;2023-02-15T09:23:31;9.33;;;7.47;;
8293;SDS011;4185;41.506;24.938;2023-02-15T09:26:01;11.67;;;7.90;;
8293;SDS011;4185;41.506;24.938;2023-02-15T09:28:28;10.80;;;7.30;;
8293;SDS011;4185;41.506;24.938;2023-02-15T09:30:55;11.10;;;7.30;;
8293;SDS011;4185;41.506;24.938;2023-02-15T09:33:22;13.07;;;8.63;;
8293;SDS011;4185;41.506;24.938;2023-02-15T09:35:50;11.00;;;8.00;;
8293;SDS011;4185;41.506;24.938;2023-02-15T09:38:16;11.83;;;10.37;;
8293;SDS011;4185;41.506;24.938;2023-02-15T09:40:48;10.17;;;6.50;;
8293;SDS011;4185;41.506;24.938;2023-02-15T09:43:26;8.37;;;5.20;;
8293;SDS011;4185;41.506;24.938;2023-02-15T09:46:15;10.10;;;7.07;;
8293;SDS011;4185;41.506;24.938;2023-02-15T09:48:51;6.90;;;6.07;;
8293;SDS011;4185;41.506;24.938;2023-02-15T09:51:26;8.60;;;6.13;;
8293;SDS011;4185;41.506;24.938;2023-02-15T09:54:24;9.73;;;6.57;;
8293;SDS011;4185;41.506;24.938;2023-02-15T09:57:05;11.03;;;7.03;;
8293;SDS011;4185;41.506;24.938;2023-02-15T09:59:38;9.47;;;6.93;;
8293;SDS011;4185;41.506;24.938;2023-02-15T10:02:19;8.80;;;6.40;;
8293;SDS011;4185;41.506;24.938;2023-02-15T10:04:55;11.57;;;7.43;;
8293;SDS011;4185;41.506;24.938;2023-02-15T10:07:39;9.90;;;6.70;;
8293;SDS011;4185;41.506;24.938;2023-02-15T10:10:32;8.47;;;6.67;;
8293;SDS011;4185;41.506;24.938;2023-02-15T10:13:12;15.00;;;7.33;;
8293;SDS011;4185;41.506;24.938;2023-02-15T10:15:53;9.33;;;6.40;;
8293;SDS011;4185;41.506;24.938;2023-02-15T10:18:37;12.57;;;7.67;;
8293;SDS011;4185;41.506;24.938;2023-02-15T10:21:16;9.57;;;7.27;;
8293;SDS011;4185;41.506;24.938;2023-02-15T10:27:04;10.90;;;6.80;;
8293;SDS011;4185;41.506;24.938;2023-02-15T10:29:39;11.13;;;6.83;;
8293;SDS011;4185;41.506;24.938;2023-02-15T10:32:16;9.27;;;7.07;;
8293;SDS011;4185;41.506;24.938;2023-02-15T10:34:50;10.20;;;6.77;;
8293;SDS011;4185;41.506;24.938;2023-02-15T10:37:32;9.50;;;6.87;;
8293;SDS011;4185;41.506;24.938;2023-02-15T10:40:15;11.50;;;8.27;;
8293;SDS011;4185;41.506;24.938;2023-02-15T10:42:54;13.57;;;8.23;;
8293;SDS011;4185;41.506;24.938;2023-02-15T10:45:37;63.80;;;33.47;;
8293;SDS011;4185;41.506;24.938;2023-02-15T10:51:33;9.87;;;6.97;;
8293;SDS011;4185;41.506;24.938;2023-02-15T10:54:13;11.80;;;7.43;;
8293;SDS011;4185;41.506;24.938;2023-02-15T10:56:51;11.40;;;7.17;;
8293;SDS011;4185;41.506;24.938;2023-02-15T10:59:30;8.50;;;7.37;;
8293;SDS011;4185;41.506;24.938;2023-02-15T11:02:10;9.37;;;7.07;;
8293;SDS011;4185;41.506;24.938;2023-02-15T11:04:53;10.53;;;7.30;;
8293;SDS011;4185;41.506;24.938;2023-02-15T11:07:30;8.90;;;6.87;;
8293;SDS011;4185;41.506;24.938;2023-02-15T11:10:01;8.07;;;6.83;;
8293;SDS011;4185;41.506;24.938;2023-02-15T11:12:39;9.50;;;6.87;;
8293;SDS011;4185;41.506;24.938;2023-02-15T11:15:11;11.33;;;7.47;;
8293;SDS011;4185;41.506;24.938;2023-02-15T11:17:48;14.07;;;8.17;;
8293;SDS011;4185;41.506;24.938;2023-02-15T11:20:21;9.70;;;6.63;;
8293;SDS011;4185;41.506;24.938;2023-02-15T11:22:53;15.37;;;9.17;;
8293;SDS011;4185;41.506;24.938;2023-02-15T11:25:23;16.17;;;9.13;;
8293;SDS011;4185;41.506;24.938;2023-02-15T11:27:52;16.30;;;9.23;;
8293;SDS011;4185;41.506;24.938;2023-02-15T11:30:22;11.73;;;7.77;;
8293;SDS011;4185;41.506;24.938;2023-02-15T11:32:53;12.13;;;7.60;;
8293;SDS011;4185;41.506;24.938;2023-02-15T11:35:24;12.30;;;8.70;;
8293;SDS011;4185;41.506;24.938;2023-02-15T11:37:54;11.67;;;8.20;;
8293;SDS011;4185;41.506;24.938;2023-02-15T11:40:28;11.27;;;7.60;;
8293;SDS011;4185;41.506;24.938;2023-02-15T11:43:00;12.63;;;7.23;;
8293;SDS011;4185;41.506;24.938;2023-02-15T11:45:31;9.53;;;7.27;;
8293;SDS011;4185;41.506;24.938;2023-02-15T11:48:04;9.67;;;7.70;;
8293;SDS011;4185;41.506;24.938;2023-02-15T11:50:36;10.17;;;7.33;;
8293;SDS011;4185;41.506;24.938;2023-02-15T11:53:03;10.80;;;7.63;;
8293;SDS011;4185;41.506;24.938;2023-02-15T11:55:35;11.77;;;8.00;;
8293;SDS011;4185;41.506;24.938;2023-02-15T11:58:03;12.20;;;7.57;;
8293;SDS011;4185;41.506;24.938;2023-02-15T12:00:36;11.77;;;8.33;;
8293;SDS011;4185;41.506;24.938;2023-02-15T12:03:09;11.40;;;7.87;;
8293;SDS011;4185;41.506;24.938;2023-02-15T12:05:41;13.73;;;9.07;;
8293;SDS011;4185;41.506;24.938;2023-02-15T12:08:17;10.23;;;7.37;;
8293;SDS011;4185;41.506;24.938;2023-02-15T12:10:53;13.97;;;7.63;;
8293;SDS011;4185;41.506;24.938;2023-02-15T12:13:25;11.43;;;8.10;;
8293;SDS011;4185;41.506;24.938;2023-02-15T12:15:52;9.40;;;7.13;;
8293;SDS011;4185;41.506;24.938;2023-02-15T12:18:31;13.03;;;7.63;;
8293;SDS011;4185;41.506;24.938;2023-02-15T12:21:03;9.50;;;7.00;;
8293;SDS011;4185;41.506;24.938;2023-02-15T12:23:33;8.93;;;7.07;;
8293;SDS011;4185;41.506;24.938;2023-02-15T12:26:07;11.43;;;7.10;;
8293;SDS011;4185;41.506;24.938;2023-02-15T12:28:34;8.83;;;6.37;;
8293;SDS011;4185;41.506;24.938;2023-02-15T12:31:07;8.87;;;6.80;;
8293;SDS011;4185;41.506;24.938;2023-02-15T12:33:46;11.87;;;7.77;;
8293;SDS011;4185;41.506;24.938;2023-02-15T12:36:15;9.30;;;7.40;;
8293;SDS011;4185;41.506;24.938;2023-02-15T12:39:00;9.80;;;7.13;;
8293;SDS011;4185;41.506;24.938;2023-02-15T12:41:29;10.10;;;7.17;;
8293;SDS011;4185;41.506;24.938;2023-02-15T12:44:02;10.33;;;7.23;;
8293;SDS011;4185;41.506;24.938;2023-02-15T12:46:32;13.57;;;9.17;;
8293;SDS011;4185;41.506;24.938;2023-02-15T12:49:07;14.07;;;9.60;;
8293;SDS011;4185;41.506;24.938;2023-02-15T12:51:47;12.30;;;9.17;;
8293;SDS011;4185;41.506;24.938;2023-02-15T12:54:20;14.00;;;9.47;;
8293;SDS011;4185;41.506;24.938;2023-02-15T12:56:56;13.30;;;9.53;;
8293;SDS011;4185;41.506;24.938;2023-02-15T12:59:23;11.20;;;8.80;;
8293;SDS011;4185;41.506;24.938;2023-02-15T13:01:51;16.30;;;9.87;;
8293;SDS011;4185;41.506;24.938;2023-02-15T13:04:23;12.30;;;8.47;;
8293;SDS011;4185;41.506;24.938;2023-02-15T13:06:52;11.27;;;8.07;;
8293;SDS011;4185;41.506;24.938;2023-02-15T13:09:25;11.17;;;7.70;;
8293;SDS011;4185;41.506;24.938;2023-02-15T13:12:08;12.30;;;8.67;;
8293;SDS011;4185;41.506;24.938;2023-02-15T13:14:43;14.20;;;8.93;;
8293;SDS011;4185;41.506;24.938;2023-02-15T13:17:11;14.47;;;9.90;;
8293;SDS011;4185;41.506;24.938;2023-02-15T13:19:44;11.50;;;8.47;;
8293;SDS011;4185;41.506;24.938;2023-02-15T13:22:15;13.90;;;8.77;;
8293;SDS011;4185;41.506;24.938;2023-02-15T13:24:47;14.23;;;10.70;;
8293;SDS011;4185;41.506;24.938;2023-02-15T13:27:16;15.00;;;9.07;;
8293;SDS011;4185;41.506;24.938;2023-02-15T13:29:46;15.87;;;11.23;;
8293;SDS011;4185;41.506;24.938;2023-02-15T13:32:21;12.90;;;9.17;;
8293;SDS011;4185;41.506;24.938;2023-02-15T13:34:54;14.23;;;9.17;;
8293;SDS011;4185;41.506;24.938;2023-02-15T13:37:26;15.80;;;10.27;;
8293;SDS011;4185;41.506;24.938;2023-02-15T13:40:10;15.70;;;10.43;;
8293;SDS011;4185;41.506;24.938;2023-02-15T13:42:42;12.27;;;9.63;;
8293;SDS011;4185;41.506;24.938;2023-02-15T13:45:26;15.53;;;9.70;;
8293;SDS011;4185;41.506;24.938;2023-02-15T13:48:06;13.57;;;9.57;;
8293;SDS011;4185;41.506;24.938;2023-02-15T13:50:46;16.30;;;10.67;;
8293;SDS011;4185;41.506;24.938;2023-02-15T13:53:36;14.40;;;10.03;;
8293;SDS011;4185;41.506;24.938;2023-02-15T13:56:15;18.40;;;13.07;;
8293;SDS011;4185;41.506;24.938;2023-02-15T14:01:50;16.23;;;12.83;;
8293;SDS011;4185;41.506;24.938;2023-02-15T14:04:40;22.17;;;13.87;;
8293;SDS011;4185;41.506;24.938;2023-02-15T14:07:30;13.53;;;9.77;;
8293;SDS011;4185;41.506;24.938;2023-02-15T14:13:01;14.13;;;10.57;;
8293;SDS011;4185;41.506;24.938;2023-02-15T14:15:46;15.03;;;11.20;;
8293;SDS011;4185;41.506;24.938;2023-02-15T14:18:18;13.77;;;11.20;;
8293;SDS011;4185;41.506;24.938;2023-02-15T14:20:56;25.20;;;15.17;;
8293;SDS011;4185;41.506;24.938;2023-02-15T14:23:33;20.70;;;13.50;;
8293;SDS011;4185;41.506;24.938;2023-02-15T14:26:10;19.40;;;12.63;;
8293;SDS011;4185;41.506;24.938;2023-02-15T14:28:46;18.00;;;11.93;;
8293;SDS011;4185;41.506;24.938;2023-02-15T14:31:22;19.67;;;12.37;;
8293;SDS011;4185;41.506;24.938;2023-02-15T14:33:55;19.97;;;11.73;;
8293;SDS011;4185;41.506;24.938;2023-02-15T14:36:23;18.63;;;11.90;;
8293;SDS011;4185;41.506;24.938;2023-02-15T14:38:59;15.40;;;9.77;;
8293;SDS011;4185;41.506;24.938;2023-02-15T14:41:53;16.90;;;10.80;;
8293;SDS011;4185;41.506;24.938;2023-02-15T14:44:27;21.63;;;12.03;;
8293;SDS011;4185;41.506;24.938;2023-02-15T14:47:04;22.00;;;12.20;;
8293;SDS011;4185;41.506;24.938;2023-02-15T14:49:36;17.40;;;10.73;;
8293;SDS011;4185;41.506;24.938;2023-02-15T14:52:04;30.57;;;19.20;;
8293;SDS011;4185;41.506;24.938;2023-02-15T14:57:30;18.77;;;11.57;;
8293;SDS011;4185;41.506;24.938;2023-02-15T14:59:59;18.37;;;12.37;;
8293;SDS011;4185;41.506;24.938;2023-02-15T15:02:40;18.13;;;12.23;;
8293;SDS011;4185;41.506;24.938;2023-02-15T15:05:15;24.70;;;15.37;;
8293;SDS011;4185;41.506;24.938;2023-02-15T15:07:45;17.43;;;11.23;;
8293;SDS011;4185;41.506;24.938;2023-02-15T15:18:57;24.53;;;13.20;;
8293;SDS011;4185;41.506;24.938;2023-02-15T15:42:42;58.50;;;30.57;;
8293;SDS011;4185;41.506;24.938;2023-02-15T15:48:21;32.73;;;19.30;;
8293;SDS011;4185;41.506;24.938;2023-02-15T15:50:56;30.80;;;18.53;;
8293;SDS011;4185;41.506;24.938;2023-02-15T15:53:25;33.47;;;18.77;;
8293;SDS011;4185;41.506;24.938;2023-02-15T15:55:55;45.83;;;24.40;;
8293;SDS011;4185;41.506;24.938;2023-02-15T15:58:27;38.77;;;22.53;;
8293;SDS011;4185;41.506;24.938;2023-02-15T16:00:55;78.47;;;33.53;;
8293;SDS011;4185;41.506;24.938;2023-02-15T16:03:28;54.27;;;25.20;;
8293;SDS011;4185;41.506;24.938;2023-02-15T16:05:55;44.37;;;26.33;;
8293;SDS011;4185;41.506;24.938;2023-02-15T16:08:26;32.87;;;19.67;;
8293;SDS011;4185;41.506;24.938;2023-02-15T16:10:54;40.20;;;25.50;;